SBOSBO DEL / VIDP
Speedbird OnlineSpeedbird Online DEL / VIDP

Indira Gandhi International Airport
04:09 14°C

Location Delhi, India
Latitude: 28.5665
Longitude: 77.103104
Web Airport Website | Wikipedia
Altitude 237 Meter / 777 Feet
Distance 6,690 KM / 4,157 Miles
from London.
Time Zone UTC +5.5 hours (Asia/Calcutta)
Codes IATA: DEL
ICAO: VIDP
Currency £1 equals INR 99.86
Runways
RunwayLength (m)Surface
092813Asphalt
103810Asphalt
114430paved
272813Asphalt
283810Asphalt
294430paved
Radio
TypeDescriptionFrequency
APPDELHI APP126.35
AREA CONTROL (E)DELHI CONTROL120.9
AREA CONTROL (W)DELHI CONTROL124.55
ATISATIS126.4
CLDClearance Delivery121.95
GNDSMC121.625
GNDDELHI GND121.9
TWRDELHI TWR rwy28/10118.1
TWRDELHI TWR RWY 29/11118.25
TWRDELHI TWR Rwy 27/09118.75
Live ATC
METAR VIDP 081430Z 28003KT 3000 HZ NSC 18/09 Q1014 NOSIG
TAF TAF VIDP 081400Z 0815/0824 27003KT 3000 HZ NSC BECMG 0822/0824 34004KT 1500 BR
Weather As Of 09 Feb 2023 04:09
Description Mist
Wind 6 km/h from West (280°)
Cloud Cover 0%
Precipitation Rain: none, Snow: none
Sunrise 07:05
Sunset 18:06
Lounges Plaza Premium Lounge (Temporarily Closed), Terminal 3
ITC Green Lounge (Temporarily Closed), Terminal 3
Rotations During the last 90 days there were
158 flights from LHR
159 flights to LHR



Support Speedbird Online

© 2017-2023 Speedbird Online